Terminal Aerodrome Forecast
Issued by NWS

Home | Current Version | Previous Version | Text Only | Print | Product List | Glossary On
Versions: 1 2 3 4 5 6 7 8 9 10 11 12 13 14 15 16 17 18 19 20 21
000
FTUS42 KILM 210500
TAFCRE
TAF
KCRE 210524Z 2106/2206 22003KT 2SM BR SCT150
      TEMPO 2106/2110 00000KT 1/2SM FG SCT003
     FM211300 25004KT P6SM BKN250
     FM211700 20010KT P6SM VCTS FEW025CB BKN040
     FM212300 21005KT P6SM SCT120=

USA.gov is the U.S. government's official web portal to all federal, state and local government web resources and services.